createdAt,value
2022-10-31T00:00:57.283Z,10.85
2022-10-31T00:03:24.534Z,10.05
2022-10-31T00:05:51.711Z,10.13
2022-10-31T00:08:18.855Z,9.65
2022-10-31T00:10:46.310Z,9.10
2022-10-31T00:13:13.870Z,9.48
2022-10-31T00:15:41.364Z,8.98
2022-10-31T00:18:08.922Z,9.55
2022-10-31T00:20:36.055Z,9.38
2022-10-31T00:23:03.192Z,9.18
2022-10-31T00:25:30.434Z,9.43
2022-10-31T00:27:57.792Z,8.93
2022-10-31T00:30:25.091Z,8.98
2022-10-31T00:32:52.260Z,9.07
2022-10-31T00:35:19.381Z,7.60
2022-10-31T00:37:46.562Z,9.38
2022-10-31T00:40:13.716Z,8.85
2022-10-31T00:42:42.532Z,8.93
2022-10-31T00:45:10.748Z,8.52
2022-10-31T00:47:37.896Z,8.77
2022-10-31T00:50:05.996Z,8.25
2022-10-31T00:52:33.170Z,7.43
2022-10-31T00:55:00.332Z,8.23
2022-10-31T00:57:27.479Z,8.40
2022-10-31T00:59:54.604Z,8.02
2022-10-31T01:02:21.873Z,9.25
2022-10-31T01:04:49.104Z,9.00
2022-10-31T01:07:16.228Z,8.57
2022-10-31T01:09:43.410Z,8.02
2022-10-31T01:12:10.541Z,8.55
2022-10-31T01:14:37.774Z,8.35
2022-10-31T01:17:04.968Z,7.90
2022-10-31T01:19:32.125Z,8.57
2022-10-31T01:21:59.249Z,8.30
2022-10-31T01:24:26.409Z,8.35
2022-10-31T01:26:53.536Z,8.15
2022-10-31T01:29:20.663Z,8.65
2022-10-31T01:31:47.821Z,8.27
2022-10-31T01:34:15.945Z,9.27
2022-10-31T01:36:43.147Z,9.20
2022-10-31T01:39:14.913Z,9.95
2022-10-31T01:41:43.048Z,10.35
2022-10-31T01:44:16.067Z,10.13
2022-10-31T01:46:53.801Z,10.65
2022-10-31T01:49:23.401Z,12.05
2022-10-31T01:51:51.924Z,9.73
2022-10-31T01:54:19.889Z,9.32
2022-10-31T01:56:47.713Z,11.90
2022-10-31T01:59:14.838Z,10.07
2022-10-31T02:01:42.107Z,10.20
2022-10-31T02:04:09.370Z,10.30
2022-10-31T02:06:48.565Z,9.63
2022-10-31T02:09:15.757Z,9.20
2022-10-31T02:11:43.053Z,9.25
2022-10-31T02:14:10.168Z,10.02
2022-10-31T02:16:37.321Z,8.48
2022-10-31T02:19:04.441Z,8.60
2022-10-31T02:21:34.634Z,7.85
2022-10-31T02:24:13.449Z,8.23
2022-10-31T02:26:40.565Z,7.80
2022-10-31T02:29:07.993Z,6.95
2022-10-31T02:31:43.897Z,7.65
2022-10-31T02:34:43.590Z,7.10
2022-10-31T02:37:14.715Z,7.28
2022-10-31T02:39:56.222Z,7.53
2022-10-31T02:42:29.478Z,7.07
2022-10-31T02:45:00.036Z,5.82
2022-10-31T02:47:30.948Z,8.30
2022-10-31T02:50:16.969Z,7.88
2022-10-31T02:52:44.134Z,6.30
2022-10-31T02:55:40.668Z,7.63
2022-10-31T02:58:11.885Z,6.93
2022-10-31T03:00:39.892Z,7.32
2022-10-31T03:03:13.199Z,7.22
2022-10-31T03:05:43.111Z,6.80
2022-10-31T03:08:16.092Z,7.18
2022-10-31T03:10:45.132Z,6.97
2022-10-31T03:13:31.015Z,7.35
2022-10-31T03:16:09.391Z,8.15
2022-10-31T03:18:39.464Z,9.25
2022-10-31T03:21:07.768Z,8.73
2022-10-31T03:23:34.911Z,10.38
2022-10-31T03:26:02.704Z,8.70
2022-10-31T03:28:30.997Z,8.65
2022-10-31T03:30:58.278Z,8.80
2022-10-31T03:33:29.351Z,9.07
2022-10-31T03:35:56.974Z,7.65
2022-10-31T03:38:24.123Z,8.43
2022-10-31T03:40:51.762Z,7.93
2022-10-31T03:45:53.112Z,8.80
2022-10-31T03:48:20.320Z,7.93
2022-10-31T03:50:47.430Z,8.95
2022-10-31T03:53:19.289Z,7.57
2022-10-31T03:55:50.948Z,7.70
2022-10-31T03:58:22.545Z,7.03
2022-10-31T04:00:49.718Z,7.80
2022-10-31T04:03:17.836Z,8.80
2022-10-31T04:05:45.796Z,8.32
2022-10-31T04:08:13.882Z,8.27
2022-10-31T04:10:41.051Z,8.00
2022-10-31T04:13:09.217Z,8.65
2022-10-31T04:15:36.772Z,8.50
2022-10-31T04:18:03.965Z,8.60
2022-10-31T04:20:37.766Z,7.60
2022-10-31T04:23:04.980Z,8.63
2022-10-31T04:25:32.111Z,8.77
2022-10-31T04:27:59.655Z,8.63
2022-10-31T04:30:26.961Z,8.80
2022-10-31T04:32:54.085Z,9.25
2022-10-31T04:35:21.231Z,8.88
2022-10-31T04:37:48.345Z,10.98
2022-10-31T04:40:15.483Z,9.25
2022-10-31T04:42:42.674Z,9.85
2022-10-31T04:45:09.992Z,11.38
2022-10-31T04:47:37.137Z,9.43
2022-10-31T04:50:04.453Z,9.60
2022-10-31T04:52:31.608Z,10.10
2022-10-31T04:54:58.784Z,10.63
2022-10-31T04:57:25.940Z,11.65
2022-10-31T04:59:53.096Z,12.90
2022-10-31T05:02:20.265Z,13.32
2022-10-31T05:04:47.481Z,12.90
2022-10-31T05:07:14.622Z,12.00
2022-10-31T05:09:41.753Z,12.85
2022-10-31T05:12:08.960Z,11.88
2022-10-31T05:14:36.081Z,12.55
2022-10-31T05:17:03.201Z,12.88
2022-10-31T05:19:30.348Z,12.70
2022-10-31T05:21:57.533Z,12.52
2022-10-31T05:24:24.653Z,12.50
2022-10-31T05:26:51.801Z,11.45
2022-10-31T05:29:18.921Z,12.30
2022-10-31T05:31:46.071Z,14.27
2022-10-31T05:34:13.216Z,12.82
2022-10-31T05:36:40.359Z,13.43
2022-10-31T05:39:07.476Z,12.27
2022-10-31T05:41:34.779Z,16.98
2022-10-31T05:44:01.900Z,14.07
2022-10-31T05:46:29.106Z,13.23
2022-10-31T05:48:57.573Z,14.07
2022-10-31T05:51:29.710Z,13.88
2022-10-31T05:53:56.861Z,14.00
2022-10-31T05:56:23.980Z,13.35
2022-10-31T05:58:51.101Z,13.88
2022-10-31T06:01:18.324Z,13.52
2022-10-31T06:03:45.501Z,14.35
2022-10-31T06:06:12.639Z,13.80
2022-10-31T06:08:39.785Z,14.38
2022-10-31T06:11:06.922Z,14.45
2022-10-31T06:13:34.043Z,14.23
2022-10-31T06:16:01.232Z,14.43
2022-10-31T06:18:28.359Z,14.65
2022-10-31T06:20:55.472Z,14.85
2022-10-31T06:23:22.738Z,14.32
2022-10-31T06:25:50.528Z,15.80
2022-10-31T06:28:17.788Z,15.77
2022-10-31T06:30:44.950Z,14.93
2022-10-31T06:33:12.064Z,13.93
2022-10-31T06:35:39.204Z,15.68
2022-10-31T06:38:06.693Z,15.07
2022-10-31T06:40:33.877Z,14.88
2022-10-31T06:43:01.313Z,15.38
2022-10-31T06:45:28.549Z,14.68
2022-10-31T06:50:42.931Z,14.52
2022-10-31T06:55:42.205Z,14.27
2022-10-31T06:58:10.538Z,13.70
2022-10-31T07:00:37.958Z,15.07
2022-10-31T07:03:06.023Z,13.80
2022-10-31T07:05:33.280Z,13.77
2022-10-31T07:08:01.593Z,12.38
2022-10-31T07:10:30.547Z,12.00
2022-10-31T07:13:00.421Z,12.95
2022-10-31T07:15:28.090Z,15.38
2022-10-31T07:17:55.212Z,16.85
2022-10-31T07:20:22.404Z,18.02
2022-10-31T07:22:50.745Z,16.70
2022-10-31T07:25:18.069Z,16.63
2022-10-31T07:27:45.238Z,16.10
2022-10-31T07:30:12.876Z,17.45
2022-10-31T07:32:43.453Z,18.38
2022-10-31T07:35:11.038Z,19.42
2022-10-31T07:37:38.178Z,19.02
2022-10-31T07:40:05.858Z,17.55
2022-10-31T07:42:39.360Z,14.70
2022-10-31T07:45:07.000Z,15.38
2022-10-31T07:47:43.758Z,17.85
2022-10-31T07:50:11.584Z,14.93
2022-10-31T07:52:38.730Z,13.13
2022-10-31T07:55:06.155Z,13.45
2022-10-31T07:57:34.699Z,11.02
2022-10-31T08:00:02.175Z,12.68
2022-10-31T08:02:29.351Z,10.57
2022-10-31T08:04:58.704Z,9.77
2022-10-31T08:07:28.456Z,11.48
2022-10-31T08:09:55.857Z,11.23
2022-10-31T08:12:23.144Z,11.55
2022-10-31T08:14:51.097Z,11.38
2022-10-31T08:17:18.228Z,11.32
2022-10-31T08:19:45.417Z,9.27
2022-10-31T08:22:12.571Z,9.75
2022-10-31T08:27:11.797Z,8.40
2022-10-31T08:29:38.949Z,7.80
2022-10-31T08:32:06.276Z,7.40
2022-10-31T08:34:33.452Z,8.27
2022-10-31T08:37:00.587Z,9.93
2022-10-31T08:39:27.715Z,11.48
2022-10-31T08:41:54.889Z,10.57
2022-10-31T08:44:22.064Z,9.27
2022-10-31T08:46:49.226Z,10.23
2022-10-31T08:49:16.400Z,12.00
2022-10-31T08:51:43.563Z,12.80
2022-10-31T08:54:10.723Z,14.10
2022-10-31T08:56:37.929Z,17.02
2022-10-31T08:59:05.087Z,15.55
2022-10-31T09:01:32.405Z,12.10
2022-10-31T09:03:59.673Z,15.77
2022-10-31T09:06:26.874Z,13.90
2022-10-31T09:08:54.065Z,14.35
2022-10-31T09:11:21.228Z,10.15
2022-10-31T09:13:48.368Z,8.75
2022-10-31T09:16:15.507Z,8.95
2022-10-31T09:18:42.669Z,8.77
2022-10-31T09:21:09.809Z,6.90
2022-10-31T09:23:37.013Z,5.90
2022-10-31T09:26:04.570Z,6.10
2022-10-31T09:28:32.759Z,6.30
2022-10-31T09:30:59.901Z,6.75
2022-10-31T09:33:27.107Z,5.40
2022-10-31T09:35:54.245Z,4.43
2022-10-31T09:38:21.847Z,5.05
2022-10-31T09:40:49.034Z,4.72
2022-10-31T09:43:34.712Z,3.95
2022-10-31T09:46:03.296Z,4.30
2022-10-31T09:48:30.421Z,5.10
2022-10-31T09:51:08.035Z,4.50
2022-10-31T09:53:40.319Z,4.80
2022-10-31T09:56:08.355Z,3.90
2022-10-31T09:58:38.237Z,4.25
2022-10-31T10:01:06.407Z,5.00
2022-10-31T10:03:33.713Z,4.38
2022-10-31T10:06:06.385Z,3.78
2022-10-31T10:08:33.937Z,4.88
2022-10-31T10:11:16.477Z,4.63
2022-10-31T10:13:57.993Z,4.60
2022-10-31T10:16:25.160Z,4.78
2022-10-31T10:19:10.886Z,4.45
2022-10-31T10:21:56.968Z,5.55
2022-10-31T10:24:27.505Z,5.70
2022-10-31T10:27:20.760Z,5.20
2022-10-31T10:30:07.525Z,4.70
2022-10-31T10:32:42.073Z,5.13
2022-10-31T10:35:38.673Z,5.45
2022-10-31T10:38:20.253Z,8.02
2022-10-31T10:40:47.428Z,9.45
2022-10-31T10:43:24.918Z,7.28
2022-10-31T10:46:30.853Z,7.38
2022-10-31T10:48:58.011Z,6.50
2022-10-31T10:51:54.412Z,6.63
2022-10-31T10:54:21.765Z,3.97
2022-10-31T10:57:15.110Z,4.68
2022-10-31T10:59:42.248Z,4.30
2022-10-31T11:02:19.713Z,4.38
2022-10-31T11:04:47.008Z,3.90
2022-10-31T11:07:14.149Z,3.25
2022-10-31T11:09:41.316Z,4.15
2022-10-31T11:12:12.447Z,4.20
2022-10-31T11:15:05.889Z,4.20
2022-10-31T11:17:34.067Z,4.05
2022-10-31T11:20:21.704Z,3.30
2022-10-31T11:22:49.439Z,4.13
2022-10-31T11:25:26.024Z,4.10
2022-10-31T11:28:10.590Z,4.22
2022-10-31T11:30:43.908Z,16.05
2022-10-31T11:33:21.544Z,9.60
2022-10-31T11:35:51.020Z,5.13
2022-10-31T11:38:22.116Z,3.67
2022-10-31T11:40:56.365Z,4.00
2022-10-31T11:43:23.522Z,4.15
2022-10-31T11:45:50.713Z,4.40
2022-10-31T11:48:18.868Z,4.30
2022-10-31T11:50:49.398Z,4.20
2022-10-31T11:53:20.997Z,3.63
2022-10-31T11:55:48.155Z,4.30
2022-10-31T11:58:41.600Z,4.20
2022-10-31T12:01:10.387Z,3.80
2022-10-31T12:03:50.737Z,4.50
2022-10-31T12:06:24.068Z,4.50
2022-10-31T12:08:51.334Z,4.28
2022-10-31T12:11:30.768Z,4.90
2022-10-31T12:14:03.482Z,4.30
2022-10-31T12:16:46.324Z,5.10
2022-10-31T12:19:16.279Z,5.32
2022-10-31T12:21:52.697Z,5.70
2022-10-31T12:24:38.738Z,6.10
2022-10-31T12:27:08.886Z,6.47
2022-10-31T12:29:41.985Z,6.60
2022-10-31T12:32:30.034Z,5.93
2022-10-31T12:35:03.143Z,5.38
2022-10-31T12:37:53.289Z,6.18
2022-10-31T12:40:32.422Z,6.45
2022-10-31T12:43:05.351Z,6.50
2022-10-31T12:45:38.620Z,5.70
2022-10-31T12:48:24.364Z,7.15
2022-10-31T12:50:54.664Z,5.72
2022-10-31T12:53:30.676Z,5.50
2022-10-31T12:56:04.245Z,5.75
2022-10-31T12:58:33.555Z,5.78
2022-10-31T13:01:05.471Z,5.20
2022-10-31T13:03:34.916Z,4.90
2022-10-31T13:06:06.826Z,7.70
2022-10-31T13:08:38.872Z,6.22
2022-10-31T13:11:12.098Z,6.40
2022-10-31T13:13:39.233Z,5.50
2022-10-31T13:16:09.506Z,5.53
2022-10-31T13:18:41.424Z,6.75
2022-10-31T13:21:17.041Z,7.00
2022-10-31T13:23:50.933Z,6.47
2022-10-31T13:26:33.545Z,6.05
2022-10-31T13:29:06.493Z,6.38
2022-10-31T13:31:33.638Z,6.65
2022-10-31T13:34:02.818Z,7.00
2022-10-31T13:36:35.521Z,6.78
2022-10-31T13:39:21.682Z,7.45
2022-10-31T13:41:50.272Z,9.07
2022-10-31T13:44:17.423Z,14.15
2022-10-31T13:46:44.855Z,100.93
2022-10-31T13:49:31.824Z,37.78
2022-10-31T13:52:10.971Z,11.57
2022-10-31T13:54:38.991Z,11.73
2022-10-31T13:57:09.407Z,10.25
2022-10-31T13:59:37.701Z,9.43
2022-10-31T14:02:17.985Z,7.63
2022-10-31T14:07:22.641Z,7.32
2022-10-31T14:09:49.764Z,7.32
2022-10-31T14:12:35.533Z,6.60
2022-10-31T14:15:07.512Z,6.88
2022-10-31T14:17:48.112Z,5.85
2022-10-31T14:20:15.267Z,7.38
2022-10-31T14:22:43.173Z,8.25
2022-10-31T14:25:29.032Z,9.05
2022-10-31T14:27:56.273Z,8.30
2022-10-31T14:30:25.318Z,8.25
2022-10-31T14:32:53.423Z,9.88
2022-10-31T14:35:21.616Z,12.80
2022-10-31T14:38:04.093Z,12.50
2022-10-31T14:40:41.734Z,13.13
2022-10-31T14:43:23.673Z,12.27
2022-10-31T14:45:56.850Z,11.57
2022-10-31T14:48:24.053Z,12.93
2022-10-31T14:50:54.859Z,13.88
2022-10-31T14:53:21.980Z,12.30
2022-10-31T14:55:50.730Z,11.35
2022-10-31T14:58:22.323Z,10.75
2022-10-31T15:00:50.098Z,12.07
2022-10-31T15:03:17.981Z,14.13
2022-10-31T15:05:58.283Z,12.40
2022-10-31T15:08:40.127Z,19.20
2022-10-31T15:11:14.212Z,16.92
2022-10-31T15:13:50.314Z,27.92
2022-10-31T15:16:19.254Z,26.95
2022-10-31T15:18:48.332Z,31.85
2022-10-31T15:21:17.029Z,57.47
2022-10-31T15:23:44.167Z,67.93
2022-10-31T15:26:19.261Z,66.95
2022-10-31T15:28:47.025Z,80.78
2022-10-31T15:31:15.465Z,86.35
2022-10-31T15:33:48.239Z,65.10
2022-10-31T15:36:25.631Z,59.08
2022-10-31T15:38:57.392Z,58.20
2022-10-31T15:41:24.508Z,62.55
2022-10-31T15:43:51.632Z,59.55
2022-10-31T15:46:18.787Z,97.28
2022-10-31T15:48:46.372Z,82.85
2022-10-31T15:51:13.712Z,281.13
2022-10-31T15:53:46.724Z,105.97
2022-10-31T15:56:27.451Z,64.32
2022-10-31T15:58:54.941Z,57.55
2022-10-31T16:01:22.182Z,101.47
2022-10-31T16:04:04.965Z,50.90
2022-10-31T16:06:32.483Z,445.13
2022-10-31T16:08:59.649Z,64.22
2022-10-31T16:11:30.960Z,63.47
2022-10-31T16:13:58.090Z,59.13
2022-10-31T16:16:40.468Z,48.30
2022-10-31T16:19:08.134Z,63.67
2022-10-31T16:21:36.013Z,59.50
2022-10-31T16:24:07.057Z,60.38
2022-10-31T16:26:34.520Z,52.72
2022-10-31T16:29:08.753Z,74.97
2022-10-31T16:31:39.285Z,58.25
2022-10-31T16:34:07.581Z,55.83
2022-10-31T16:36:38.992Z,53.88
2022-10-31T16:39:06.204Z,59.10
2022-10-31T16:41:33.790Z,49.63
2022-10-31T16:44:01.780Z,54.33
2022-10-31T16:46:28.978Z,53.95
2022-10-31T16:48:56.146Z,53.78
2022-10-31T16:51:23.261Z,56.28
2022-10-31T16:53:52.503Z,45.15
2022-10-31T16:56:20.288Z,50.47
2022-10-31T16:58:47.477Z,48.72
2022-10-31T17:01:14.750Z,47.47
2022-10-31T17:03:42.014Z,64.50
2022-10-31T17:06:15.177Z,102.53
2022-10-31T17:08:42.443Z,79.93
2022-10-31T17:11:10.595Z,63.10
2022-10-31T17:13:37.742Z,70.28
2022-10-31T17:16:05.079Z,65.88
2022-10-31T17:18:32.530Z,60.72
2022-10-31T17:21:00.289Z,65.03
2022-10-31T17:23:27.613Z,55.72
2022-10-31T17:25:54.809Z,54.85
2022-10-31T17:28:22.144Z,47.42
2022-10-31T17:30:49.277Z,47.63
2022-10-31T17:33:17.024Z,50.95
2022-10-31T17:35:47.433Z,45.20
2022-10-31T17:38:14.584Z,47.90
2022-10-31T17:40:42.378Z,167.52
2022-10-31T17:43:09.970Z,76.28
2022-10-31T17:45:38.748Z,87.95
2022-10-31T17:48:06.051Z,102.38
2022-10-31T17:50:33.239Z,94.00
2022-10-31T17:53:00.743Z,82.47
2022-10-31T17:55:30.517Z,83.65
2022-10-31T17:58:01.370Z,82.78
2022-10-31T18:00:28.538Z,76.03
2022-10-31T18:02:55.673Z,70.25
2022-10-31T18:05:22.844Z,64.32
2022-10-31T18:07:51.071Z,62.25
2022-10-31T18:10:18.289Z,56.70
2022-10-31T18:12:45.585Z,55.90
2022-10-31T18:15:13.024Z,55.58
2022-10-31T18:17:42.208Z,58.60
2022-10-31T18:20:10.266Z,55.03
2022-10-31T18:22:37.424Z,58.28
2022-10-31T18:25:04.726Z,59.45
2022-10-31T18:27:31.987Z,65.25
2022-10-31T18:29:59.130Z,69.15
2022-10-31T18:32:26.313Z,63.83
2022-10-31T18:34:53.880Z,63.45
2022-10-31T18:37:21.030Z,62.63
2022-10-31T18:39:48.222Z,75.20
2022-10-31T18:42:15.461Z,66.85
2022-10-31T18:44:42.644Z,115.30
2022-10-31T18:47:09.775Z,114.85
2022-10-31T18:49:37.046Z,100.72
2022-10-31T18:52:04.787Z,99.75
2022-10-31T18:54:31.943Z,90.35
2022-10-31T18:56:59.127Z,83.25
2022-10-31T18:59:26.268Z,78.80
2022-10-31T19:01:53.471Z,75.18
2022-10-31T19:04:20.771Z,71.95
2022-10-31T19:06:47.925Z,82.20
2022-10-31T19:09:15.131Z,65.47
2022-10-31T19:11:42.321Z,69.88
2022-10-31T19:14:10.993Z,69.75
2022-10-31T19:16:38.183Z,66.68
2022-10-31T19:19:05.408Z,64.40
2022-10-31T19:21:32.555Z,64.93
2022-10-31T19:23:59.975Z,70.18
2022-10-31T19:26:28.702Z,65.60
2022-10-31T19:28:56.476Z,65.40
2022-10-31T19:31:23.707Z,69.15
2022-10-31T19:33:50.876Z,64.35
2022-10-31T19:36:18.717Z,68.05
2022-10-31T19:38:46.581Z,82.28
2022-10-31T19:41:15.031Z,67.88
2022-10-31T19:43:42.306Z,77.75
2022-10-31T19:46:17.467Z,73.65
2022-10-31T19:48:55.095Z,74.53
2022-10-31T19:51:22.334Z,70.10
2022-10-31T19:53:49.856Z,66.47
2022-10-31T19:56:17.871Z,69.60
2022-10-31T19:58:45.013Z,74.93
2022-10-31T20:01:13.154Z,77.32
2022-10-31T20:03:41.786Z,76.47
2022-10-31T20:06:10.469Z,72.65
2022-10-31T20:08:39.566Z,72.13
2022-10-31T20:11:06.934Z,68.60
2022-10-31T20:13:34.337Z,69.70
2022-10-31T20:16:02.503Z,70.82
2022-10-31T20:18:29.969Z,78.30
2022-10-31T20:21:10.352Z,70.28
2022-10-31T20:23:37.553Z,71.50
2022-10-31T20:26:04.739Z,67.57
2022-10-31T20:28:32.107Z,66.43
2022-10-31T20:30:59.705Z,63.80
2022-10-31T20:33:27.001Z,64.65
2022-10-31T20:35:54.143Z,66.03
2022-10-31T20:38:21.323Z,65.28
2022-10-31T20:40:48.488Z,59.85
2022-10-31T20:43:16.860Z,59.88
2022-10-31T20:45:44.028Z,67.63
2022-10-31T20:48:11.155Z,63.88
2022-10-31T20:50:39.416Z,60.60
2022-10-31T20:53:06.603Z,65.75
2022-10-31T20:55:33.752Z,64.10
2022-10-31T20:58:00.898Z,60.42
2022-10-31T21:00:28.098Z,57.90
2022-10-31T21:02:55.264Z,57.65
2022-10-31T21:05:22.423Z,56.20
2022-10-31T21:10:21.649Z,55.35
2022-10-31T21:12:48.789Z,54.25
2022-10-31T21:15:15.977Z,52.55
2022-10-31T21:17:43.179Z,57.22
2022-10-31T21:20:10.654Z,52.95
2022-10-31T21:22:38.072Z,49.80
2022-10-31T21:25:05.359Z,51.17
2022-10-31T21:27:32.623Z,49.22
2022-10-31T21:30:00.303Z,51.22
2022-10-31T21:32:27.560Z,48.58
2022-10-31T21:34:54.718Z,47.63
2022-10-31T21:37:21.897Z,46.67
2022-10-31T21:39:50.983Z,47.63
2022-10-31T21:42:21.385Z,45.50
2022-10-31T21:44:49.091Z,49.10
2022-10-31T21:47:16.285Z,46.38
2022-10-31T21:49:43.601Z,48.15
2022-10-31T21:52:10.874Z,46.30
2022-10-31T21:54:38.021Z,42.97
2022-10-31T21:57:05.193Z,42.88
2022-10-31T21:59:32.379Z,41.03
2022-10-31T22:02:00.788Z,40.85
2022-10-31T22:04:28.277Z,39.40
2022-10-31T22:06:55.468Z,40.17
2022-10-31T22:09:23.694Z,38.00
2022-10-31T22:11:50.893Z,40.28
2022-10-31T22:14:18.064Z,37.25
2022-10-31T22:16:45.264Z,36.30
2022-10-31T22:19:13.237Z,32.22
2022-10-31T22:21:44.304Z,35.45
2022-10-31T22:24:11.501Z,32.40
2022-10-31T22:26:38.869Z,32.55
2022-10-31T22:29:06.856Z,33.10
2022-10-31T22:31:34.254Z,34.20
2022-10-31T22:34:01.505Z,31.55
2022-10-31T22:36:29.935Z,29.25
2022-10-31T22:38:57.400Z,30.98
2022-10-31T22:41:31.681Z,31.00
2022-10-31T22:43:58.989Z,28.52
2022-10-31T22:46:29.949Z,26.93
2022-10-31T22:48:58.143Z,30.08
2022-10-31T22:51:29.236Z,30.58
2022-10-31T22:53:56.736Z,29.35
2022-10-31T22:56:24.571Z,30.27
2022-10-31T22:58:51.833Z,28.80
2022-10-31T23:01:23.009Z,27.90
2022-10-31T23:03:50.364Z,27.45
2022-10-31T23:06:27.409Z,27.92
2022-10-31T23:08:54.749Z,25.45
2022-10-31T23:11:24.948Z,25.85
2022-10-31T23:14:15.771Z,25.35
2022-10-31T23:16:49.073Z,25.55
2022-10-31T23:19:19.166Z,27.85
2022-10-31T23:21:57.355Z,25.05
2022-10-31T23:24:43.952Z,24.48
2022-10-31T23:27:18.049Z,24.58
2022-10-31T23:29:45.246Z,23.33
2022-10-31T23:32:22.292Z,22.52
2022-10-31T23:34:50.416Z,22.02
2022-10-31T23:37:17.822Z,21.30
2022-10-31T23:39:45.124Z,20.67
2022-10-31T23:42:12.358Z,20.77
2022-10-31T23:44:39.525Z,20.83
2022-10-31T23:47:06.949Z,21.27
2022-10-31T23:49:34.136Z,22.85
2022-10-31T23:52:01.392Z,22.33
2022-10-31T23:54:28.536Z,22.40
2022-10-31T23:56:56.182Z,21.08
2022-10-31T23:59:23.384Z,21.15
